createdAt,value
2019-05-20T00:02:24.537Z,21.23
2019-05-20T00:04:40.475Z,10.93
2019-05-20T00:07:07.169Z,10.88
2019-05-20T00:09:33.772Z,10.40
2019-05-20T00:14:23.571Z,10.15
2019-05-20T00:16:50.229Z,11.50
2019-05-20T00:19:16.833Z,10.78
2019-05-20T00:21:43.533Z,10.72
2019-05-20T00:24:10.256Z,11.20
2019-05-20T00:26:37.032Z,11.68
2019-05-20T00:29:03.831Z,11.43
2019-05-20T00:31:30.538Z,11.48
2019-05-20T00:33:57.212Z,12.78
2019-05-20T00:36:24.002Z,12.80
2019-05-20T00:39:09.079Z,13.43
2019-05-20T00:41:35.660Z,12.23
2019-05-20T00:44:02.556Z,12.13
2019-05-20T00:46:29.359Z,11.95
2019-05-20T00:48:56.051Z,11.55
2019-05-20T00:51:22.717Z,11.80
2019-05-20T00:53:49.516Z,12.53
2019-05-20T00:56:16.315Z,13.25
2019-05-20T00:58:43.108Z,14.15
2019-05-20T01:01:11.264Z,13.45
2019-05-20T01:03:38.071Z,13.28
2019-05-20T01:06:04.863Z,14.55
2019-05-20T01:08:31.634Z,14.95
2019-05-20T01:10:58.445Z,12.88
2019-05-20T01:13:25.648Z,13.15
2019-05-20T01:15:52.442Z,13.20
2019-05-20T01:18:19.155Z,14.25
2019-05-20T01:20:45.880Z,16.55
2019-05-20T01:23:12.558Z,16.10
2019-05-20T01:25:39.229Z,14.38
2019-05-20T01:28:06.011Z,12.98
2019-05-20T01:30:32.810Z,13.70
2019-05-20T01:33:12.803Z,16.05
2019-05-20T01:35:28.035Z,16.00
2019-05-20T01:37:55.042Z,13.78
2019-05-20T01:40:21.916Z,15.30
2019-05-20T01:42:48.627Z,16.23
2019-05-20T01:45:15.733Z,17.15
2019-05-20T01:47:42.519Z,16.97
2019-05-20T01:50:10.536Z,15.10
2019-05-20T01:52:37.232Z,17.42
2019-05-20T01:55:04.600Z,17.80
2019-05-20T01:57:31.297Z,18.15
2019-05-20T01:59:57.982Z,17.17
2019-05-20T02:02:24.666Z,17.12
2019-05-20T02:04:51.553Z,15.38
2019-05-20T02:07:18.409Z,15.88
2019-05-20T02:09:45.165Z,16.50
2019-05-20T02:12:11.951Z,16.70
2019-05-20T02:17:30.809Z,18.87
2019-05-20T02:19:57.380Z,18.48
2019-05-20T02:22:24.098Z,18.42
2019-05-20T02:24:51.061Z,20.12
2019-05-20T02:27:18.087Z,17.67
2019-05-20T02:29:44.751Z,16.32
2019-05-20T02:32:11.545Z,18.70
2019-05-20T02:34:38.216Z,19.90
2019-05-20T02:37:05.007Z,17.48
2019-05-20T02:39:31.773Z,17.67
2019-05-20T02:41:58.562Z,18.20
2019-05-20T02:44:25.348Z,18.57
2019-05-20T02:47:11.684Z,20.15
2019-05-20T02:49:38.468Z,21.30
2019-05-20T02:52:05.546Z,20.55
2019-05-20T02:54:33.533Z,20.37
2019-05-20T02:57:00.245Z,20.68
2019-05-20T02:59:28.328Z,21.42
2019-05-20T03:01:55.115Z,18.90
2019-05-20T03:04:21.880Z,20.88
2019-05-20T03:06:48.565Z,19.27
2019-05-20T03:09:15.344Z,19.98
2019-05-20T03:11:42.181Z,21.15
2019-05-20T03:14:08.955Z,20.20
2019-05-20T03:16:55.393Z,19.37
2019-05-20T03:19:22.071Z,19.70
2019-05-20T03:21:48.921Z,19.57
2019-05-20T03:24:35.320Z,19.12
2019-05-20T03:27:21.734Z,21.17
2019-05-20T03:29:48.496Z,20.20
2019-05-20T03:32:15.299Z,23.40
2019-05-20T03:34:50.798Z,25.48
2019-05-20T03:37:10.818Z,27.27
2019-05-20T03:39:37.612Z,25.05
2019-05-20T03:42:05.040Z,25.27
2019-05-20T03:44:31.859Z,26.25
2019-05-20T03:46:58.506Z,23.55
2019-05-20T03:49:44.790Z,27.25
2019-05-20T03:52:11.487Z,26.93
2019-05-20T03:54:38.158Z,27.50
2019-05-20T03:57:04.934Z,24.07
2019-05-20T03:59:31.709Z,25.50
2019-05-20T04:01:58.500Z,24.25
2019-05-20T04:04:25.475Z,25.77
2019-05-20T04:06:52.402Z,27.13
2019-05-20T04:09:19.185Z,26.48
2019-05-20T04:11:45.857Z,29.42
2019-05-20T04:14:12.544Z,24.85
2019-05-20T04:16:39.423Z,25.48
2019-05-20T04:19:06.136Z,26.27
2019-05-20T04:21:32.915Z,25.95
2019-05-20T04:24:01.086Z,25.88
2019-05-20T04:26:28.301Z,25.48
2019-05-20T04:28:54.987Z,24.18
2019-05-20T04:31:21.789Z,25.40
2019-05-20T04:33:48.586Z,27.48
2019-05-20T04:36:15.305Z,24.85
2019-05-20T04:38:42.116Z,28.40
2019-05-20T04:41:08.891Z,26.73
2019-05-20T04:43:35.580Z,30.30
2019-05-20T04:46:02.720Z,27.10
2019-05-20T04:48:29.564Z,28.23
2019-05-20T04:50:56.387Z,26.87
2019-05-20T04:53:23.163Z,25.43
2019-05-20T04:55:49.914Z,26.42
2019-05-20T04:58:16.622Z,24.15
2019-05-20T05:00:58.582Z,28.17
2019-05-20T05:03:27.076Z,24.40
2019-05-20T05:05:53.868Z,23.55
2019-05-20T05:08:21.169Z,23.10
2019-05-20T05:10:48.193Z,26.37
2019-05-20T05:13:15.011Z,26.82
2019-05-20T05:15:41.973Z,23.62
2019-05-20T05:18:08.778Z,23.75
2019-05-20T05:20:35.560Z,20.23
2019-05-20T05:23:02.547Z,21.02
2019-05-20T05:25:29.323Z,22.65
2019-05-20T05:27:56.108Z,24.10
2019-05-20T05:30:22.880Z,20.45
2019-05-20T05:32:49.682Z,23.42
2019-05-20T05:35:16.990Z,22.85
2019-05-20T05:37:43.861Z,24.10
2019-05-20T05:40:13.108Z,22.82
2019-05-20T05:42:39.866Z,20.25
2019-05-20T05:45:07.787Z,25.12
2019-05-20T05:47:34.567Z,21.48
2019-05-20T05:50:01.366Z,23.00
2019-05-20T05:52:27.922Z,25.17
2019-05-20T05:54:54.735Z,31.52
2019-05-20T05:57:21.412Z,29.52
2019-05-20T05:59:48.009Z,26.40
2019-05-20T06:02:14.787Z,26.62
2019-05-20T06:04:41.476Z,27.75
2019-05-20T06:07:08.252Z,27.37
2019-05-20T06:09:34.940Z,28.30
2019-05-20T06:12:01.712Z,28.38
2019-05-20T06:14:28.504Z,28.57
2019-05-20T06:16:55.214Z,31.52
2019-05-20T06:19:21.812Z,31.33
2019-05-20T06:21:48.492Z,31.27
2019-05-20T06:24:15.306Z,30.20
2019-05-20T06:26:42.107Z,30.27
2019-05-20T06:29:08.811Z,32.13
2019-05-20T06:31:35.622Z,27.17
2019-05-20T06:34:02.399Z,27.05
2019-05-20T06:36:29.164Z,28.10
2019-05-20T06:39:12.037Z,29.55
2019-05-20T06:41:39.007Z,30.82
2019-05-20T06:44:05.870Z,30.40
2019-05-20T06:46:32.706Z,28.90
2019-05-20T06:48:59.388Z,32.55
2019-05-20T06:51:26.084Z,30.50
2019-05-20T06:53:52.861Z,30.40
2019-05-20T06:56:19.619Z,36.35
2019-05-20T06:58:46.404Z,39.70
2019-05-20T07:01:13.176Z,34.38
2019-05-20T07:03:39.940Z,32.25
2019-05-20T07:06:06.739Z,35.15
2019-05-20T07:08:33.340Z,36.17
2019-05-20T07:11:00.004Z,35.85
2019-05-20T07:13:26.763Z,35.33
2019-05-20T07:15:53.605Z,35.90
2019-05-20T07:18:20.266Z,36.17
2019-05-20T07:20:47.013Z,35.05
2019-05-20T07:23:13.678Z,38.80
2019-05-20T07:25:40.475Z,35.33
2019-05-20T07:28:07.250Z,36.77
2019-05-20T07:30:34.079Z,38.35
2019-05-20T07:33:00.738Z,35.73
2019-05-20T07:35:30.658Z,44.23
2019-05-20T07:37:56.131Z,37.00
2019-05-20T07:40:32.644Z,35.33
2019-05-20T07:42:59.460Z,37.50
2019-05-20T07:45:29.200Z,33.85
2019-05-20T07:47:55.950Z,36.03
2019-05-20T07:50:23.308Z,37.23
2019-05-20T07:52:50.427Z,32.88
2019-05-20T07:55:17.509Z,34.85
2019-05-20T07:57:46.597Z,34.85
2019-05-20T08:00:13.381Z,36.68
2019-05-20T08:02:40.558Z,34.35
2019-05-20T08:05:07.749Z,33.58
2019-05-20T08:07:50.585Z,34.88
2019-05-20T08:10:04.303Z,36.65
2019-05-20T08:12:31.164Z,34.63
2019-05-20T08:14:58.065Z,33.33
2019-05-20T08:17:24.864Z,33.55
2019-05-20T08:19:51.629Z,33.55
2019-05-20T08:22:18.435Z,33.05
2019-05-20T08:24:45.222Z,34.08
2019-05-20T08:27:12.027Z,36.53
2019-05-20T08:29:38.809Z,35.13
2019-05-20T08:32:05.621Z,35.28
2019-05-20T08:34:32.652Z,36.68
2019-05-20T08:36:59.658Z,35.90
2019-05-20T08:39:26.504Z,33.88
2019-05-20T08:41:53.308Z,39.75
2019-05-20T08:44:19.990Z,34.00
2019-05-20T08:46:46.812Z,35.25
2019-05-20T08:49:13.586Z,35.17
2019-05-20T08:51:40.388Z,34.90
2019-05-20T08:54:07.363Z,34.23
2019-05-20T08:56:34.176Z,34.73
2019-05-20T08:59:00.926Z,35.20
2019-05-20T09:01:27.757Z,35.83
2019-05-20T09:03:54.301Z,34.73
2019-05-20T09:06:21.219Z,38.25
2019-05-20T09:08:47.903Z,36.53
2019-05-20T09:11:14.717Z,36.15
2019-05-20T09:13:41.523Z,51.20
2019-05-20T09:16:08.222Z,38.30
2019-05-20T09:18:34.919Z,37.40
2019-05-20T09:21:01.610Z,37.73
2019-05-20T09:23:28.408Z,38.83
2019-05-20T09:25:55.179Z,35.70
2019-05-20T09:28:21.767Z,55.08
2019-05-20T09:30:48.874Z,30.75
2019-05-20T09:33:15.652Z,32.28
2019-05-20T09:35:42.799Z,33.40
2019-05-20T09:38:19.597Z,34.58
2019-05-20T09:40:41.220Z,33.60
2019-05-20T09:43:08.017Z,34.35
2019-05-20T09:45:34.897Z,35.65
2019-05-20T09:48:01.658Z,33.05
2019-05-20T09:50:28.500Z,33.35
2019-05-20T09:52:55.510Z,32.58
2019-05-20T09:55:22.398Z,31.73
2019-05-20T09:57:49.056Z,31.23
2019-05-20T10:00:37.173Z,33.38
2019-05-20T10:03:04.434Z,31.37
2019-05-20T10:05:31.703Z,31.48
2019-05-20T10:07:58.489Z,31.95
2019-05-20T10:10:25.262Z,29.50
2019-05-20T10:12:52.064Z,34.73
2019-05-20T10:15:19.024Z,30.40
2019-05-20T10:17:45.818Z,29.75
2019-05-20T10:20:12.980Z,32.10
2019-05-20T10:22:39.777Z,32.13
2019-05-20T10:25:08.048Z,30.02
2019-05-20T10:27:34.892Z,29.70
2019-05-20T10:30:01.820Z,30.50
2019-05-20T10:32:28.660Z,34.30
2019-05-20T10:34:55.338Z,32.42
2019-05-20T10:37:22.144Z,33.63
2019-05-20T10:39:48.913Z,33.30
2019-05-20T10:42:15.701Z,34.00
2019-05-20T10:44:42.502Z,31.02
2019-05-20T10:47:09.294Z,31.75
2019-05-20T10:49:35.960Z,31.17
2019-05-20T10:52:02.753Z,31.90
2019-05-20T10:54:29.329Z,34.05
2019-05-20T10:56:59.419Z,33.25
2019-05-20T10:59:24.967Z,32.35
2019-05-20T11:01:51.676Z,35.70
2019-05-20T11:04:18.492Z,33.90
2019-05-20T11:06:45.173Z,31.73
2019-05-20T11:09:14.449Z,34.00
2019-05-20T11:11:40.538Z,35.68
2019-05-20T11:14:07.362Z,34.03
2019-05-20T11:16:34.193Z,33.73
2019-05-20T11:19:00.869Z,34.88
2019-05-20T11:21:27.692Z,36.63
2019-05-20T11:23:54.266Z,35.98
2019-05-20T11:26:21.056Z,34.33
2019-05-20T11:28:47.854Z,32.38
2019-05-20T11:31:14.526Z,32.20
2019-05-20T11:33:41.213Z,35.40
2019-05-20T11:36:07.980Z,33.45
2019-05-20T11:38:34.766Z,32.35
2019-05-20T11:41:01.424Z,31.57
2019-05-20T11:43:28.125Z,33.13
2019-05-20T11:45:54.799Z,29.52
2019-05-20T11:48:21.791Z,37.85
2019-05-20T11:50:48.538Z,37.23
2019-05-20T11:53:15.380Z,37.55
2019-05-20T11:55:42.163Z,35.50
2019-05-20T11:58:15.891Z,37.00
2019-05-20T12:00:37.591Z,38.17
2019-05-20T12:03:04.483Z,37.20
2019-05-20T12:05:31.251Z,36.98
2019-05-20T12:07:57.961Z,34.45
2019-05-20T12:10:24.804Z,35.60
2019-05-20T12:12:51.576Z,34.50
2019-05-20T12:15:18.595Z,38.08
2019-05-20T12:17:45.267Z,33.40
2019-05-20T12:20:12.930Z,37.88
2019-05-20T12:22:39.697Z,37.35
2019-05-20T12:25:06.917Z,36.00
2019-05-20T12:27:33.677Z,33.83
2019-05-20T12:30:00.465Z,36.05
2019-05-20T12:32:27.261Z,38.00
2019-05-20T12:34:53.945Z,39.03
2019-05-20T12:37:20.513Z,39.92
2019-05-20T12:39:47.205Z,36.88
2019-05-20T12:42:14.057Z,38.88
2019-05-20T12:44:41.020Z,37.25
2019-05-20T12:47:07.790Z,40.75
2019-05-20T12:49:34.608Z,39.20
2019-05-20T12:52:01.335Z,39.08
2019-05-20T12:54:28.014Z,41.45
2019-05-20T12:56:54.792Z,37.25
2019-05-20T12:59:21.391Z,36.73
2019-05-20T13:01:48.170Z,40.12
2019-05-20T13:04:14.880Z,38.60
2019-05-20T13:06:41.526Z,36.60
2019-05-20T13:09:08.349Z,35.63
2019-05-20T13:11:35.629Z,38.48
2019-05-20T13:14:02.422Z,32.13
2019-05-20T13:16:29.094Z,32.70
2019-05-20T13:18:56.591Z,33.98
2019-05-20T13:21:23.277Z,37.25
2019-05-20T13:23:49.990Z,38.80
2019-05-20T13:26:16.998Z,34.25
2019-05-20T13:28:43.785Z,33.67
2019-05-20T13:31:10.554Z,32.10
2019-05-20T13:33:37.248Z,30.82
2019-05-20T13:36:04.120Z,34.03
2019-05-20T13:38:30.725Z,34.90
2019-05-20T13:40:57.418Z,34.65
2019-05-20T13:43:24.107Z,36.45
2019-05-20T13:45:50.989Z,35.58
2019-05-20T13:48:17.694Z,35.75
2019-05-20T13:50:44.503Z,36.90
2019-05-20T13:53:11.174Z,37.05
2019-05-20T13:55:38.009Z,32.48
2019-05-20T13:58:04.682Z,36.80
2019-05-20T14:00:31.791Z,33.25
2019-05-20T14:02:58.504Z,34.30
2019-05-20T14:05:25.634Z,38.33
2019-05-20T14:07:52.311Z,36.17
2019-05-20T14:10:19.187Z,36.28
2019-05-20T14:12:45.961Z,37.45
2019-05-20T14:15:34.224Z,36.33
2019-05-20T14:18:00.905Z,37.03
2019-05-20T14:20:27.596Z,37.67
2019-05-20T14:22:54.365Z,36.10
2019-05-20T14:25:21.543Z,36.80
2019-05-20T14:27:48.137Z,40.35
2019-05-20T14:30:15.044Z,36.45
2019-05-20T14:32:42.962Z,35.20
2019-05-20T14:35:09.923Z,35.50
2019-05-20T14:37:36.715Z,35.55
2019-05-20T14:40:03.838Z,36.28
2019-05-20T14:42:30.642Z,35.48
2019-05-20T14:44:57.262Z,31.97
2019-05-20T14:47:23.969Z,30.68
2019-05-20T14:49:50.804Z,33.18
2019-05-20T14:52:17.587Z,39.85
2019-05-20T14:54:44.279Z,39.45
2019-05-20T14:57:11.072Z,39.20
2019-05-20T14:59:37.773Z,35.45
2019-05-20T15:02:04.534Z,37.03
2019-05-20T15:04:31.202Z,40.88
2019-05-20T15:06:58.036Z,43.00
2019-05-20T15:09:24.620Z,36.83
2019-05-20T15:11:51.399Z,33.35
2019-05-20T15:14:18.093Z,34.58
2019-05-20T15:16:44.953Z,29.48
2019-05-20T15:19:11.662Z,447.60
2019-05-20T15:21:38.506Z,567.22
2019-05-20T15:24:05.368Z,553.25
2019-05-20T15:26:32.089Z,70.22
2019-05-20T15:28:58.969Z,12.43
2019-05-20T15:31:25.664Z,19.17
2019-05-20T15:33:52.337Z,9.05
2019-05-20T15:36:19.140Z,9.48
2019-05-20T15:38:45.849Z,9.70
2019-05-20T15:41:12.645Z,11.90
2019-05-20T15:43:39.438Z,18.35
2019-05-20T15:46:06.135Z,8.00
2019-05-20T15:48:32.813Z,8.93
2019-05-20T15:50:59.589Z,10.80
2019-05-20T15:53:26.367Z,7.90
2019-05-20T15:55:53.103Z,7.15
2019-05-20T15:58:23.529Z,6.85
2019-05-20T16:00:48.507Z,6.22
2019-05-20T16:03:15.331Z,7.20
2019-05-20T16:05:41.920Z,7.67
2019-05-20T16:08:08.700Z,9.23
2019-05-20T16:10:35.504Z,9.30
2019-05-20T16:13:02.214Z,10.15
2019-05-20T16:15:29.002Z,8.80
2019-05-20T16:17:56.115Z,9.75
2019-05-20T16:20:22.921Z,10.32
2019-05-20T16:22:49.612Z,8.33
2019-05-20T16:25:16.408Z,8.95
2019-05-20T16:27:43.216Z,9.05
2019-05-20T16:30:31.323Z,8.15
2019-05-20T16:32:57.989Z,8.58
2019-05-20T16:35:24.775Z,8.53
2019-05-20T16:37:51.593Z,9.30
2019-05-20T16:40:19.306Z,9.33
2019-05-20T16:42:46.111Z,9.85
2019-05-20T16:45:13.180Z,10.68
2019-05-20T16:47:39.981Z,10.10
2019-05-20T16:50:07.909Z,11.43
2019-05-20T16:52:35.617Z,10.30
2019-05-20T16:55:02.623Z,9.93
2019-05-20T16:57:29.375Z,10.53
2019-05-20T16:59:56.146Z,10.35
2019-05-20T17:02:22.917Z,9.50
2019-05-20T17:04:49.689Z,10.48
2019-05-20T17:12:40.360Z,11.48
2019-05-20T17:15:08.046Z,10.32
2019-05-20T17:17:34.821Z,10.98
2019-05-20T17:20:01.597Z,13.75
2019-05-20T17:22:28.374Z,14.20
2019-05-20T17:24:55.035Z,12.05
2019-05-20T17:27:21.722Z,13.25
2019-05-20T17:29:48.493Z,11.95
2019-05-20T17:32:15.319Z,17.27
2019-05-20T17:34:42.087Z,155.05
2019-05-20T17:37:08.913Z,19.75
2019-05-20T17:39:35.693Z,21.48
2019-05-20T17:42:02.858Z,33.30
2019-05-20T17:44:29.635Z,19.52
2019-05-20T17:46:56.375Z,111.10
2019-05-20T17:49:23.175Z,27.58
2019-05-20T17:51:50.031Z,211.90
2019-05-20T17:54:16.791Z,573.58
2019-05-20T17:56:43.588Z,42.27
2019-05-20T17:59:10.255Z,55.67
2019-05-20T18:01:36.960Z,102.27
2019-05-20T18:04:03.731Z,29.98
2019-05-20T18:06:30.345Z,42.65
2019-05-20T18:08:59.389Z,78.42
2019-05-20T18:11:26.173Z,59.15
2019-05-20T18:13:52.969Z,76.07
2019-05-20T18:16:19.803Z,82.22
2019-05-20T18:18:46.579Z,60.10
2019-05-20T18:21:13.361Z,56.68
2019-05-20T18:23:40.155Z,61.55
2019-05-20T18:26:06.967Z,83.55
2019-05-20T18:28:33.706Z,72.70
2019-05-20T18:31:00.352Z,58.20
2019-05-20T18:33:27.147Z,57.05
2019-05-20T18:35:53.913Z,61.15
2019-05-20T18:38:20.515Z,59.95
2019-05-20T18:40:47.285Z,68.57
2019-05-20T18:43:14.093Z,90.30
2019-05-20T18:45:40.900Z,108.70
2019-05-20T18:48:07.701Z,84.22
2019-05-20T18:50:34.379Z,98.12
2019-05-20T18:53:01.064Z,74.25
2019-05-20T18:55:27.741Z,73.33
2019-05-20T18:57:54.468Z,75.47
2019-05-20T19:00:21.338Z,78.02
2019-05-20T19:02:48.095Z,117.13
2019-05-20T19:05:14.882Z,81.08
2019-05-20T19:07:41.582Z,80.35
2019-05-20T19:10:08.945Z,85.38
2019-05-20T19:12:35.743Z,106.72
2019-05-20T19:15:02.925Z,95.80
2019-05-20T19:17:29.717Z,81.25
2019-05-20T19:19:56.411Z,99.32
2019-05-20T19:22:23.102Z,99.13
2019-05-20T19:24:49.880Z,101.25
2019-05-20T19:27:16.580Z,114.42
2019-05-20T19:29:43.450Z,115.52
2019-05-20T19:32:11.242Z,98.72
2019-05-20T19:34:38.074Z,119.17
2019-05-20T19:37:04.756Z,128.53
2019-05-20T19:39:31.652Z,96.35
2019-05-20T19:41:58.315Z,93.67
2019-05-20T19:44:25.117Z,165.88
2019-05-20T19:46:51.715Z,144.55
2019-05-20T19:49:18.417Z,89.22
2019-05-20T19:51:45.063Z,99.45
2019-05-20T19:54:11.758Z,231.80
2019-05-20T19:56:38.431Z,187.47
2019-05-20T19:59:05.113Z,387.85
2019-05-20T20:01:31.911Z,308.87
2019-05-20T20:03:58.723Z,150.57
2019-05-20T20:06:25.430Z,292.73
2019-05-20T20:08:52.213Z,106.58
2019-05-20T20:11:18.895Z,246.93
2019-05-20T20:13:45.578Z,180.57
2019-05-20T20:16:17.111Z,116.08
2019-05-20T20:18:41.009Z,234.10
2019-05-20T20:21:07.943Z,244.28
2019-05-20T20:23:34.646Z,167.57
2019-05-20T20:26:01.551Z,109.63
2019-05-20T20:28:28.381Z,142.10
2019-05-20T20:35:04.010Z,200.50
